sensor_id;sensor_type;location;lat;lon;timestamp;P1;durP1;ratioP1;P2;durP2;ratioP2
68273;SDS011;55104;47.356;19.448;2023-05-16T00:00:14;7.20;;;2.45;;
68273;SDS011;55104;47.356;19.448;2023-05-16T00:03:17;9.40;;;2.25;;
68273;SDS011;55104;47.356;19.448;2023-05-16T00:06:19;6.45;;;2.40;;
68273;SDS011;55104;47.356;19.448;2023-05-16T00:09:21;6.00;;;2.03;;
68273;SDS011;55104;47.356;19.448;2023-05-16T00:12:23;6.38;;;2.35;;
68273;SDS011;55104;47.356;19.448;2023-05-16T00:15:26;7.00;;;2.58;;
68273;SDS011;55104;47.356;19.448;2023-05-16T00:18:30;8.35;;;2.80;;
68273;SDS011;55104;47.356;19.448;2023-05-16T00:21:32;8.10;;;2.92;;
68273;SDS011;55104;47.356;19.448;2023-05-16T00:24:34;6.27;;;2.20;;
68273;SDS011;55104;47.356;19.448;2023-05-16T00:27:36;8.38;;;2.47;;
68273;SDS011;55104;47.356;19.448;2023-05-16T00:30:38;6.28;;;2.33;;
68273;SDS011;55104;47.356;19.448;2023-05-16T00:33:41;8.43;;;2.28;;
68273;SDS011;55104;47.356;19.448;2023-05-16T00:36:43;7.13;;;2.63;;
68273;SDS011;55104;47.356;19.448;2023-05-16T00:39:45;8.57;;;3.10;;
68273;SDS011;55104;47.356;19.448;2023-05-16T00:42:47;6.97;;;2.55;;
68273;SDS011;55104;47.356;19.448;2023-05-16T00:45:49;8.68;;;2.78;;
68273;SDS011;55104;47.356;19.448;2023-05-16T00:48:51;6.97;;;2.33;;
68273;SDS011;55104;47.356;19.448;2023-05-16T00:51:54;6.78;;;2.72;;
68273;SDS011;55104;47.356;19.448;2023-05-16T00:54:57;8.73;;;3.00;;
68273;SDS011;55104;47.356;19.448;2023-05-16T00:58:00;6.63;;;2.75;;
68273;SDS011;55104;47.356;19.448;2023-05-16T01:01:02;7.20;;;2.30;;
68273;SDS011;55104;47.356;19.448;2023-05-16T01:04:05;10.70;;;2.65;;
68273;SDS011;55104;47.356;19.448;2023-05-16T01:07:08;7.18;;;2.28;;
68273;SDS011;55104;47.356;19.448;2023-05-16T01:10:10;7.43;;;2.80;;
68273;SDS011;55104;47.356;19.448;2023-05-16T01:13:38;6.72;;;2.78;;
68273;SDS011;55104;47.356;19.448;2023-05-16T01:23:59;6.75;;;2.70;;
68273;SDS011;55104;47.356;19.448;2023-05-16T01:27:09;7.20;;;2.53;;
68273;SDS011;55104;47.356;19.448;2023-05-16T01:30:16;7.15;;;2.67;;
68273;SDS011;55104;47.356;19.448;2023-05-16T01:33:20;8.40;;;3.13;;
68273;SDS011;55104;47.356;19.448;2023-05-16T01:36:35;7.28;;;2.22;;
68273;SDS011;55104;47.356;19.448;2023-05-16T01:40:01;7.88;;;2.70;;
68273;SDS011;55104;47.356;19.448;2023-05-16T01:43:10;7.37;;;2.80;;
68273;SDS011;55104;47.356;19.448;2023-05-16T01:46:20;7.93;;;2.45;;
68273;SDS011;55104;47.356;19.448;2023-05-16T01:49:34;7.35;;;2.88;;
68273;SDS011;55104;47.356;19.448;2023-05-16T01:56:18;10.30;;;3.85;;
68273;SDS011;55104;47.356;19.448;2023-05-16T01:59:22;9.93;;;3.97;;
68273;SDS011;55104;47.356;19.448;2023-05-16T02:02:27;10.02;;;3.58;;
68273;SDS011;55104;47.356;19.448;2023-05-16T02:05:29;10.10;;;3.83;;
68273;SDS011;55104;47.356;19.448;2023-05-16T02:08:31;10.45;;;4.10;;
68273;SDS011;55104;47.356;19.448;2023-05-16T02:11:34;10.55;;;4.38;;
68273;SDS011;55104;47.356;19.448;2023-05-16T02:14:36;10.50;;;4.70;;
68273;SDS011;55104;47.356;19.448;2023-05-16T02:17:38;11.50;;;5.05;;
68273;SDS011;55104;47.356;19.448;2023-05-16T02:20:40;11.10;;;4.55;;
68273;SDS011;55104;47.356;19.448;2023-05-16T02:23:42;11.43;;;4.65;;
68273;SDS011;55104;47.356;19.448;2023-05-16T02:26:44;12.93;;;4.53;;
68273;SDS011;55104;47.356;19.448;2023-05-16T02:29:47;12.90;;;4.70;;
68273;SDS011;55104;47.356;19.448;2023-05-16T02:32:49;12.90;;;5.18;;
68273;SDS011;55104;47.356;19.448;2023-05-16T02:35:51;13.38;;;4.38;;
68273;SDS011;55104;47.356;19.448;2023-05-16T02:38:53;13.10;;;5.65;;
68273;SDS011;55104;47.356;19.448;2023-05-16T02:41:56;12.98;;;5.15;;
68273;SDS011;55104;47.356;19.448;2023-05-16T02:44:58;13.00;;;5.77;;
68273;SDS011;55104;47.356;19.448;2023-05-16T02:48:00;12.10;;;4.78;;
68273;SDS011;55104;47.356;19.448;2023-05-16T02:51:02;14.93;;;5.53;;
68273;SDS011;55104;47.356;19.448;2023-05-16T02:54:04;14.25;;;5.75;;
68273;SDS011;55104;47.356;19.448;2023-05-16T02:57:08;12.00;;;5.20;;
68273;SDS011;55104;47.356;19.448;2023-05-16T03:00:11;14.90;;;5.17;;
68273;SDS011;55104;47.356;19.448;2023-05-16T03:03:17;15.02;;;6.22;;
68273;SDS011;55104;47.356;19.448;2023-05-16T03:06:19;14.50;;;5.50;;
68273;SDS011;55104;47.356;19.448;2023-05-16T03:09:21;13.07;;;5.88;;
68273;SDS011;55104;47.356;19.448;2023-05-16T03:12:23;16.90;;;5.55;;
68273;SDS011;55104;47.356;19.448;2023-05-16T03:15:25;13.00;;;4.77;;
68273;SDS011;55104;47.356;19.448;2023-05-16T03:18:28;14.88;;;5.55;;
68273;SDS011;55104;47.356;19.448;2023-05-16T03:21:30;12.65;;;5.47;;
68273;SDS011;55104;47.356;19.448;2023-05-16T03:24:32;14.00;;;5.50;;
68273;SDS011;55104;47.356;19.448;2023-05-16T03:27:35;14.73;;;6.20;;
68273;SDS011;55104;47.356;19.448;2023-05-16T03:30:37;12.90;;;4.87;;
68273;SDS011;55104;47.356;19.448;2023-05-16T03:33:39;12.70;;;5.22;;
68273;SDS011;55104;47.356;19.448;2023-05-16T03:36:41;12.35;;;4.38;;
68273;SDS011;55104;47.356;19.448;2023-05-16T03:39:43;12.60;;;4.32;;
68273;SDS011;55104;47.356;19.448;2023-05-16T03:42:45;16.40;;;4.72;;
68273;SDS011;55104;47.356;19.448;2023-05-16T03:45:47;14.60;;;5.37;;
68273;SDS011;55104;47.356;19.448;2023-05-16T03:48:49;17.98;;;5.57;;
68273;SDS011;55104;47.356;19.448;2023-05-16T03:51:51;15.68;;;5.78;;
68273;SDS011;55104;47.356;19.448;2023-05-16T03:54:53;14.32;;;5.60;;
68273;SDS011;55104;47.356;19.448;2023-05-16T03:57:55;16.40;;;5.65;;
68273;SDS011;55104;47.356;19.448;2023-05-16T04:00:57;14.60;;;4.93;;
68273;SDS011;55104;47.356;19.448;2023-05-16T04:04:00;12.75;;;5.05;;
68273;SDS011;55104;47.356;19.448;2023-05-16T04:07:02;14.25;;;5.57;;
68273;SDS011;55104;47.356;19.448;2023-05-16T04:10:04;14.00;;;5.78;;
68273;SDS011;55104;47.356;19.448;2023-05-16T04:13:07;17.05;;;5.75;;
68273;SDS011;55104;47.356;19.448;2023-05-16T04:16:08;12.40;;;4.83;;
68273;SDS011;55104;47.356;19.448;2023-05-16T04:19:11;16.67;;;6.35;;
68273;SDS011;55104;47.356;19.448;2023-05-16T04:22:13;19.30;;;6.47;;
68273;SDS011;55104;47.356;19.448;2023-05-16T04:25:15;13.23;;;5.00;;
68273;SDS011;55104;47.356;19.448;2023-05-16T04:28:17;14.35;;;5.05;;
68273;SDS011;55104;47.356;19.448;2023-05-16T04:31:19;12.77;;;5.20;;
68273;SDS011;55104;47.356;19.448;2023-05-16T04:34:22;14.45;;;5.35;;
68273;SDS011;55104;47.356;19.448;2023-05-16T04:37:28;12.45;;;5.30;;
68273;SDS011;55104;47.356;19.448;2023-05-16T04:40:30;15.57;;;5.28;;
68273;SDS011;55104;47.356;19.448;2023-05-16T04:43:32;15.13;;;4.88;;
68273;SDS011;55104;47.356;19.448;2023-05-16T04:46:34;11.43;;;4.47;;
68273;SDS011;55104;47.356;19.448;2023-05-16T04:49:37;11.18;;;3.78;;
68273;SDS011;55104;47.356;19.448;2023-05-16T04:52:39;14.70;;;4.60;;
68273;SDS011;55104;47.356;19.448;2023-05-16T04:55:41;12.45;;;5.13;;
68273;SDS011;55104;47.356;19.448;2023-05-16T04:58:43;10.60;;;3.50;;
68273;SDS011;55104;47.356;19.448;2023-05-16T05:01:45;15.80;;;4.60;;
68273;SDS011;55104;47.356;19.448;2023-05-16T05:04:48;11.18;;;3.88;;
68273;SDS011;55104;47.356;19.448;2023-05-16T05:07:50;10.15;;;4.22;;
68273;SDS011;55104;47.356;19.448;2023-05-16T05:10:54;10.38;;;3.63;;
68273;SDS011;55104;47.356;19.448;2023-05-16T05:13:56;12.35;;;3.55;;
68273;SDS011;55104;47.356;19.448;2023-05-16T05:16:58;10.60;;;4.00;;
68273;SDS011;55104;47.356;19.448;2023-05-16T05:20:01;11.05;;;3.78;;
68273;SDS011;55104;47.356;19.448;2023-05-16T05:23:07;10.73;;;3.80;;
68273;SDS011;55104;47.356;19.448;2023-05-16T05:26:09;10.95;;;3.78;;
68273;SDS011;55104;47.356;19.448;2023-05-16T05:29:11;10.38;;;3.60;;
68273;SDS011;55104;47.356;19.448;2023-05-16T05:32:13;10.27;;;3.30;;
68273;SDS011;55104;47.356;19.448;2023-05-16T05:35:15;11.40;;;3.55;;
68273;SDS011;55104;47.356;19.448;2023-05-16T05:38:17;9.55;;;3.35;;
68273;SDS011;55104;47.356;19.448;2023-05-16T05:41:19;12.00;;;3.70;;
68273;SDS011;55104;47.356;19.448;2023-05-16T05:44:22;9.95;;;3.47;;
68273;SDS011;55104;47.356;19.448;2023-05-16T05:47:25;10.07;;;3.13;;
68273;SDS011;55104;47.356;19.448;2023-05-16T05:50:27;8.45;;;3.15;;
68273;SDS011;55104;47.356;19.448;2023-05-16T05:53:29;9.38;;;3.15;;
68273;SDS011;55104;47.356;19.448;2023-05-16T05:56:31;9.07;;;2.92;;
68273;SDS011;55104;47.356;19.448;2023-05-16T05:59:33;9.55;;;3.03;;
68273;SDS011;55104;47.356;19.448;2023-05-16T06:02:35;8.67;;;2.87;;
68273;SDS011;55104;47.356;19.448;2023-05-16T06:05:38;9.05;;;2.80;;
68273;SDS011;55104;47.356;19.448;2023-05-16T06:08:40;10.25;;;3.33;;
68273;SDS011;55104;47.356;19.448;2023-05-16T06:11:42;11.88;;;4.20;;
68273;SDS011;55104;47.356;19.448;2023-05-16T06:14:46;9.82;;;3.47;;
68273;SDS011;55104;47.356;19.448;2023-05-16T06:17:48;8.00;;;2.83;;
68273;SDS011;55104;47.356;19.448;2023-05-16T06:20:51;10.18;;;2.90;;
68273;SDS011;55104;47.356;19.448;2023-05-16T06:23:54;8.48;;;3.08;;
68273;SDS011;55104;47.356;19.448;2023-05-16T06:26:56;10.90;;;3.22;;
68273;SDS011;55104;47.356;19.448;2023-05-16T06:29:58;8.75;;;3.00;;
68273;SDS011;55104;47.356;19.448;2023-05-16T06:33:01;10.17;;;3.33;;
68273;SDS011;55104;47.356;19.448;2023-05-16T06:36:03;11.45;;;2.72;;
68273;SDS011;55104;47.356;19.448;2023-05-16T06:39:05;8.45;;;3.13;;
68273;SDS011;55104;47.356;19.448;2023-05-16T06:42:08;8.35;;;2.65;;
68273;SDS011;55104;47.356;19.448;2023-05-16T06:45:12;7.47;;;2.58;;
68273;SDS011;55104;47.356;19.448;2023-05-16T06:48:14;8.67;;;2.37;;
68273;SDS011;55104;47.356;19.448;2023-05-16T06:51:16;8.35;;;2.38;;
68273;SDS011;55104;47.356;19.448;2023-05-16T06:54:18;10.85;;;2.63;;
68273;SDS011;55104;47.356;19.448;2023-05-16T06:57:20;8.05;;;3.13;;
68273;SDS011;55104;47.356;19.448;2023-05-16T07:00:22;7.80;;;3.30;;
68273;SDS011;55104;47.356;19.448;2023-05-16T07:03:25;8.20;;;2.73;;
68273;SDS011;55104;47.356;19.448;2023-05-16T07:06:27;8.05;;;2.70;;
68273;SDS011;55104;47.356;19.448;2023-05-16T07:09:30;7.95;;;2.83;;
68273;SDS011;55104;47.356;19.448;2023-05-16T07:12:34;6.20;;;2.15;;
68273;SDS011;55104;47.356;19.448;2023-05-16T07:15:37;8.15;;;2.67;;
68273;SDS011;55104;47.356;19.448;2023-05-16T07:18:39;7.67;;;2.50;;
68273;SDS011;55104;47.356;19.448;2023-05-16T07:21:41;7.85;;;2.72;;
68273;SDS011;55104;47.356;19.448;2023-05-16T07:24:43;7.13;;;2.40;;
68273;SDS011;55104;47.356;19.448;2023-05-16T07:27:45;9.43;;;2.00;;
68273;SDS011;55104;47.356;19.448;2023-05-16T07:30:47;8.07;;;2.60;;
68273;SDS011;55104;47.356;19.448;2023-05-16T07:33:49;7.83;;;2.17;;
68273;SDS011;55104;47.356;19.448;2023-05-16T07:36:51;6.72;;;2.58;;
68273;SDS011;55104;47.356;19.448;2023-05-16T07:39:53;7.07;;;2.17;;
68273;SDS011;55104;47.356;19.448;2023-05-16T07:42:56;6.97;;;2.45;;
68273;SDS011;55104;47.356;19.448;2023-05-16T07:45:58;6.80;;;2.53;;
68273;SDS011;55104;47.356;19.448;2023-05-16T07:49:00;5.73;;;2.00;;
68273;SDS011;55104;47.356;19.448;2023-05-16T07:52:02;7.35;;;1.73;;
68273;SDS011;55104;47.356;19.448;2023-05-16T07:55:04;6.47;;;1.58;;
68273;SDS011;55104;47.356;19.448;2023-05-16T07:58:07;6.95;;;1.80;;
68273;SDS011;55104;47.356;19.448;2023-05-16T08:01:09;5.53;;;1.65;;
68273;SDS011;55104;47.356;19.448;2023-05-16T08:04:11;6.90;;;2.37;;
68273;SDS011;55104;47.356;19.448;2023-05-16T08:07:13;6.07;;;2.05;;
68273;SDS011;55104;47.356;19.448;2023-05-16T08:10:15;5.95;;;1.83;;
68273;SDS011;55104;47.356;19.448;2023-05-16T08:13:17;5.60;;;1.90;;
68273;SDS011;55104;47.356;19.448;2023-05-16T08:16:19;5.07;;;1.50;;
68273;SDS011;55104;47.356;19.448;2023-05-16T08:19:21;6.93;;;2.07;;
68273;SDS011;55104;47.356;19.448;2023-05-16T08:22:24;7.20;;;1.88;;
68273;SDS011;55104;47.356;19.448;2023-05-16T08:25:26;6.07;;;1.92;;
68273;SDS011;55104;47.356;19.448;2023-05-16T08:28:29;6.15;;;1.80;;
68273;SDS011;55104;47.356;19.448;2023-05-16T08:31:31;7.57;;;2.35;;
68273;SDS011;55104;47.356;19.448;2023-05-16T08:34:33;5.27;;;1.67;;
68273;SDS011;55104;47.356;19.448;2023-05-16T08:37:37;6.50;;;2.53;;
68273;SDS011;55104;47.356;19.448;2023-05-16T08:40:39;7.63;;;2.92;;
68273;SDS011;55104;47.356;19.448;2023-05-16T08:43:41;8.00;;;2.20;;
68273;SDS011;55104;47.356;19.448;2023-05-16T08:46:43;6.28;;;2.00;;
68273;SDS011;55104;47.356;19.448;2023-05-16T08:49:50;7.53;;;2.23;;
68273;SDS011;55104;47.356;19.448;2023-05-16T08:52:52;5.63;;;1.67;;
68273;SDS011;55104;47.356;19.448;2023-05-16T08:55:55;5.85;;;1.92;;
68273;SDS011;55104;47.356;19.448;2023-05-16T08:58:57;6.47;;;2.33;;
68273;SDS011;55104;47.356;19.448;2023-05-16T09:02:00;7.00;;;2.20;;
68273;SDS011;55104;47.356;19.448;2023-05-16T09:05:03;6.10;;;2.20;;
68273;SDS011;55104;47.356;19.448;2023-05-16T09:08:06;5.97;;;2.10;;
68273;SDS011;55104;47.356;19.448;2023-05-16T09:11:08;6.22;;;2.13;;
68273;SDS011;55104;47.356;19.448;2023-05-16T09:14:10;7.05;;;1.90;;
68273;SDS011;55104;47.356;19.448;2023-05-16T09:17:12;7.97;;;2.70;;
68273;SDS011;55104;47.356;19.448;2023-05-16T09:20:17;5.77;;;1.63;;
68273;SDS011;55104;47.356;19.448;2023-05-16T09:23:24;10.40;;;2.40;;
68273;SDS011;55104;47.356;19.448;2023-05-16T09:26:26;9.63;;;2.55;;
68273;SDS011;55104;47.356;19.448;2023-05-16T09:29:28;7.07;;;2.55;;
68273;SDS011;55104;47.356;19.448;2023-05-16T09:32:31;6.97;;;2.25;;
68273;SDS011;55104;47.356;19.448;2023-05-16T09:35:33;8.73;;;2.87;;
68273;SDS011;55104;47.356;19.448;2023-05-16T09:38:46;6.20;;;2.15;;
68273;SDS011;55104;47.356;19.448;2023-05-16T09:41:50;8.23;;;2.28;;
68273;SDS011;55104;47.356;19.448;2023-05-16T09:44:53;9.55;;;3.35;;
68273;SDS011;55104;47.356;19.448;2023-05-16T09:48:06;10.15;;;3.70;;
68273;SDS011;55104;47.356;19.448;2023-05-16T09:51:10;8.20;;;2.77;;
68273;SDS011;55104;47.356;19.448;2023-05-16T09:54:12;9.65;;;3.85;;
68273;SDS011;55104;47.356;19.448;2023-05-16T09:57:18;11.50;;;4.57;;
68273;SDS011;55104;47.356;19.448;2023-05-16T10:00:28;10.00;;;3.80;;
68273;SDS011;55104;47.356;19.448;2023-05-16T10:03:35;8.90;;;2.85;;
68273;SDS011;55104;47.356;19.448;2023-05-16T10:06:39;8.53;;;3.13;;
68273;SDS011;55104;47.356;19.448;2023-05-16T10:09:43;10.95;;;3.83;;
68273;SDS011;55104;47.356;19.448;2023-05-16T10:12:46;10.35;;;3.80;;
68273;SDS011;55104;47.356;19.448;2023-05-16T10:15:49;9.30;;;3.85;;
68273;SDS011;55104;47.356;19.448;2023-05-16T10:18:53;10.98;;;4.18;;
68273;SDS011;55104;47.356;19.448;2023-05-16T10:21:57;12.10;;;3.93;;
68273;SDS011;55104;47.356;19.448;2023-05-16T10:25:08;9.75;;;4.43;;
68273;SDS011;55104;47.356;19.448;2023-05-16T10:28:11;10.30;;;4.18;;
68273;SDS011;55104;47.356;19.448;2023-05-16T10:31:15;11.45;;;3.67;;
68273;SDS011;55104;47.356;19.448;2023-05-16T10:34:17;11.38;;;4.38;;
68273;SDS011;55104;47.356;19.448;2023-05-16T10:37:19;10.67;;;4.17;;
68273;SDS011;55104;47.356;19.448;2023-05-16T10:40:22;9.50;;;4.30;;
68273;SDS011;55104;47.356;19.448;2023-05-16T10:43:26;9.23;;;3.50;;
68273;SDS011;55104;47.356;19.448;2023-05-16T10:46:31;11.77;;;4.28;;
68273;SDS011;55104;47.356;19.448;2023-05-16T10:49:33;11.13;;;4.50;;
68273;SDS011;55104;47.356;19.448;2023-05-16T10:52:38;9.40;;;4.00;;
68273;SDS011;55104;47.356;19.448;2023-05-16T10:55:43;10.25;;;3.97;;
68273;SDS011;55104;47.356;19.448;2023-05-16T10:59:21;10.43;;;4.70;;
68273;SDS011;55104;47.356;19.448;2023-05-16T11:05:34;8.88;;;4.15;;
68273;SDS011;55104;47.356;19.448;2023-05-16T11:08:44;9.57;;;4.50;;
68273;SDS011;55104;47.356;19.448;2023-05-16T11:12:08;10.48;;;4.57;;
68273;SDS011;55104;47.356;19.448;2023-05-16T11:15:23;10.63;;;4.88;;
68273;SDS011;55104;47.356;19.448;2023-05-16T11:18:30;15.43;;;5.10;;
68273;SDS011;55104;47.356;19.448;2023-05-16T11:25:09;9.90;;;4.53;;
68273;SDS011;55104;47.356;19.448;2023-05-16T11:28:12;11.90;;;4.60;;
68273;SDS011;55104;47.356;19.448;2023-05-16T11:31:15;12.80;;;4.97;;
68273;SDS011;55104;47.356;19.448;2023-05-16T11:34:19;9.25;;;3.72;;
68273;SDS011;55104;47.356;19.448;2023-05-16T11:37:21;10.15;;;3.90;;
68273;SDS011;55104;47.356;19.448;2023-05-16T11:40:23;9.77;;;4.57;;
68273;SDS011;55104;47.356;19.448;2023-05-16T11:43:27;9.52;;;4.50;;
68273;SDS011;55104;47.356;19.448;2023-05-16T11:46:29;11.82;;;3.75;;
68273;SDS011;55104;47.356;19.448;2023-05-16T11:49:31;12.32;;;4.55;;
68273;SDS011;55104;47.356;19.448;2023-05-16T11:52:34;9.32;;;3.45;;
68273;SDS011;55104;47.356;19.448;2023-05-16T11:55:37;10.77;;;3.63;;
68273;SDS011;55104;47.356;19.448;2023-05-16T11:58:43;8.18;;;3.72;;
68273;SDS011;55104;47.356;19.448;2023-05-16T12:01:49;7.95;;;3.65;;
68273;SDS011;55104;47.356;19.448;2023-05-16T12:04:51;9.88;;;3.17;;
68273;SDS011;55104;47.356;19.448;2023-05-16T12:07:54;10.15;;;4.20;;
68273;SDS011;55104;47.356;19.448;2023-05-16T12:10:56;8.37;;;3.57;;
68273;SDS011;55104;47.356;19.448;2023-05-16T12:13:58;10.27;;;3.67;;
68273;SDS011;55104;47.356;19.448;2023-05-16T12:17:00;8.23;;;2.83;;
68273;SDS011;55104;47.356;19.448;2023-05-16T12:20:05;8.15;;;3.30;;
68273;SDS011;55104;47.356;19.448;2023-05-16T12:23:14;8.68;;;3.60;;
68273;SDS011;55104;47.356;19.448;2023-05-16T12:26:22;7.97;;;3.40;;
68273;SDS011;55104;47.356;19.448;2023-05-16T12:29:31;7.70;;;3.10;;
68273;SDS011;55104;47.356;19.448;2023-05-16T12:32:35;8.77;;;4.35;;
68273;SDS011;55104;47.356;19.448;2023-05-16T12:35:39;9.57;;;3.80;;
68273;SDS011;55104;47.356;19.448;2023-05-16T12:38:44;13.88;;;4.35;;
68273;SDS011;55104;47.356;19.448;2023-05-16T12:41:48;9.57;;;3.43;;
68273;SDS011;55104;47.356;19.448;2023-05-16T12:44:50;9.55;;;3.72;;
68273;SDS011;55104;47.356;19.448;2023-05-16T12:47:56;9.98;;;3.50;;
68273;SDS011;55104;47.356;19.448;2023-05-16T12:51:11;8.07;;;3.58;;
68273;SDS011;55104;47.356;19.448;2023-05-16T12:54:16;9.18;;;3.83;;
68273;SDS011;55104;47.356;19.448;2023-05-16T12:57:19;8.33;;;3.90;;
68273;SDS011;55104;47.356;19.448;2023-05-16T13:00:21;8.13;;;3.83;;
68273;SDS011;55104;47.356;19.448;2023-05-16T13:03:24;9.88;;;3.95;;
68273;SDS011;55104;47.356;19.448;2023-05-16T13:06:26;10.13;;;3.75;;
68273;SDS011;55104;47.356;19.448;2023-05-16T13:09:37;10.32;;;4.40;;
68273;SDS011;55104;47.356;19.448;2023-05-16T13:12:39;9.67;;;4.30;;
68273;SDS011;55104;47.356;19.448;2023-05-16T13:15:42;10.40;;;4.55;;
68273;SDS011;55104;47.356;19.448;2023-05-16T13:18:44;8.07;;;3.70;;
68273;SDS011;55104;47.356;19.448;2023-05-16T13:21:46;9.50;;;3.90;;
68273;SDS011;55104;47.356;19.448;2023-05-16T13:24:48;9.90;;;4.15;;
68273;SDS011;55104;47.356;19.448;2023-05-16T13:27:51;10.57;;;4.47;;
68273;SDS011;55104;47.356;19.448;2023-05-16T13:30:54;12.55;;;4.47;;
68273;SDS011;55104;47.356;19.448;2023-05-16T13:33:56;9.75;;;4.05;;
68273;SDS011;55104;47.356;19.448;2023-05-16T13:36:59;10.77;;;4.88;;
68273;SDS011;55104;47.356;19.448;2023-05-16T13:40:01;12.75;;;4.82;;
68273;SDS011;55104;47.356;19.448;2023-05-16T13:43:07;15.70;;;5.20;;
68273;SDS011;55104;47.356;19.448;2023-05-16T13:46:09;14.13;;;4.65;;
68273;SDS011;55104;47.356;19.448;2023-05-16T13:49:11;9.25;;;3.67;;
68273;SDS011;55104;47.356;19.448;2023-05-16T13:52:13;10.27;;;4.82;;
68273;SDS011;55104;47.356;19.448;2023-05-16T13:55:15;7.97;;;3.58;;
68273;SDS011;55104;47.356;19.448;2023-05-16T13:58:19;10.07;;;4.07;;
68273;SDS011;55104;47.356;19.448;2023-05-16T14:01:21;9.45;;;4.05;;
68273;SDS011;55104;47.356;19.448;2023-05-16T14:04:24;11.93;;;3.88;;
68273;SDS011;55104;47.356;19.448;2023-05-16T14:07:27;13.32;;;5.50;;
68273;SDS011;55104;47.356;19.448;2023-05-16T14:10:29;9.25;;;4.03;;
68273;SDS011;55104;47.356;19.448;2023-05-16T14:13:32;10.77;;;4.87;;
68273;SDS011;55104;47.356;19.448;2023-05-16T14:16:34;11.57;;;4.70;;
68273;SDS011;55104;47.356;19.448;2023-05-16T14:19:36;10.35;;;4.13;;
68273;SDS011;55104;47.356;19.448;2023-05-16T14:22:38;11.93;;;3.72;;
68273;SDS011;55104;47.356;19.448;2023-05-16T14:25:40;10.65;;;4.15;;
68273;SDS011;55104;47.356;19.448;2023-05-16T14:28:42;9.37;;;4.70;;
68273;SDS011;55104;47.356;19.448;2023-05-16T14:31:45;11.30;;;4.38;;
68273;SDS011;55104;47.356;19.448;2023-05-16T14:34:47;11.57;;;3.85;;
68273;SDS011;55104;47.356;19.448;2023-05-16T14:37:50;10.40;;;4.38;;
68273;SDS011;55104;47.356;19.448;2023-05-16T14:40:52;9.70;;;4.57;;
68273;SDS011;55104;47.356;19.448;2023-05-16T14:43:55;12.60;;;5.33;;
68273;SDS011;55104;47.356;19.448;2023-05-16T14:46:57;13.38;;;4.57;;
68273;SDS011;55104;47.356;19.448;2023-05-16T14:49:59;10.95;;;4.88;;
68273;SDS011;55104;47.356;19.448;2023-05-16T14:53:02;11.40;;;4.57;;
68273;SDS011;55104;47.356;19.448;2023-05-16T14:56:04;11.95;;;5.05;;
68273;SDS011;55104;47.356;19.448;2023-05-16T14:59:06;10.90;;;4.97;;
68273;SDS011;55104;47.356;19.448;2023-05-16T15:02:08;11.07;;;4.43;;
68273;SDS011;55104;47.356;19.448;2023-05-16T15:05:11;10.70;;;4.40;;
68273;SDS011;55104;47.356;19.448;2023-05-16T15:08:13;8.98;;;4.13;;
68273;SDS011;55104;47.356;19.448;2023-05-16T15:11:15;9.20;;;4.32;;
68273;SDS011;55104;47.356;19.448;2023-05-16T15:14:17;11.17;;;4.70;;
68273;SDS011;55104;47.356;19.448;2023-05-16T15:17:19;10.05;;;4.20;;
68273;SDS011;55104;47.356;19.448;2023-05-16T15:20:21;11.55;;;4.35;;
68273;SDS011;55104;47.356;19.448;2023-05-16T15:23:24;10.07;;;4.18;;
68273;SDS011;55104;47.356;19.448;2023-05-16T15:26:26;9.93;;;4.63;;
68273;SDS011;55104;47.356;19.448;2023-05-16T15:29:29;12.13;;;4.33;;
68273;SDS011;55104;47.356;19.448;2023-05-16T15:32:31;14.02;;;4.40;;
68273;SDS011;55104;47.356;19.448;2023-05-16T15:35:33;11.23;;;4.13;;
68273;SDS011;55104;47.356;19.448;2023-05-16T15:38:35;10.65;;;4.35;;
68273;SDS011;55104;47.356;19.448;2023-05-16T15:41:37;10.88;;;4.07;;
68273;SDS011;55104;47.356;19.448;2023-05-16T15:44:59;10.00;;;4.63;;
68273;SDS011;55104;47.356;19.448;2023-05-16T15:48:01;13.48;;;4.75;;
68273;SDS011;55104;47.356;19.448;2023-05-16T15:51:04;10.27;;;4.20;;
68273;SDS011;55104;47.356;19.448;2023-05-16T15:54:06;12.15;;;5.00;;
68273;SDS011;55104;47.356;19.448;2023-05-16T15:57:08;11.73;;;4.50;;
68273;SDS011;55104;47.356;19.448;2023-05-16T16:00:11;11.77;;;4.23;;
68273;SDS011;55104;47.356;19.448;2023-05-16T16:03:14;9.88;;;4.25;;
68273;SDS011;55104;47.356;19.448;2023-05-16T16:06:16;15.90;;;4.35;;
68273;SDS011;55104;47.356;19.448;2023-05-16T16:09:18;13.65;;;5.38;;
68273;SDS011;55104;47.356;19.448;2023-05-16T16:12:21;9.48;;;4.13;;
68273;SDS011;55104;47.356;19.448;2023-05-16T16:15:23;15.67;;;4.50;;
68273;SDS011;55104;47.356;19.448;2023-05-16T16:18:25;14.43;;;5.10;;
68273;SDS011;55104;47.356;19.448;2023-05-16T16:21:27;11.02;;;4.72;;
68273;SDS011;55104;47.356;19.448;2023-05-16T16:24:29;11.30;;;4.53;;
68273;SDS011;55104;47.356;19.448;2023-05-16T16:27:32;14.15;;;5.00;;
68273;SDS011;55104;47.356;19.448;2023-05-16T16:30:34;11.07;;;3.70;;
68273;SDS011;55104;47.356;19.448;2023-05-16T16:33:36;10.75;;;4.55;;
68273;SDS011;55104;47.356;19.448;2023-05-16T16:36:39;11.98;;;4.53;;
68273;SDS011;55104;47.356;19.448;2023-05-16T16:39:41;13.23;;;5.10;;
68273;SDS011;55104;47.356;19.448;2023-05-16T16:42:44;10.40;;;5.05;;
68273;SDS011;55104;47.356;19.448;2023-05-16T16:45:46;14.03;;;5.97;;
68273;SDS011;55104;47.356;19.448;2023-05-16T16:48:49;12.45;;;4.75;;
68273;SDS011;55104;47.356;19.448;2023-05-16T16:51:53;9.98;;;3.70;;
68273;SDS011;55104;47.356;19.448;2023-05-16T16:54:55;9.25;;;4.20;;
68273;SDS011;55104;47.356;19.448;2023-05-16T16:57:58;12.23;;;4.63;;
68273;SDS011;55104;47.356;19.448;2023-05-16T17:01:00;12.67;;;4.60;;
68273;SDS011;55104;47.356;19.448;2023-05-16T17:04:03;11.07;;;4.50;;
68273;SDS011;55104;47.356;19.448;2023-05-16T17:07:08;10.82;;;3.95;;
68273;SDS011;55104;47.356;19.448;2023-05-16T17:10:11;11.70;;;4.45;;
68273;SDS011;55104;47.356;19.448;2023-05-16T17:13:14;16.40;;;4.93;;
68273;SDS011;55104;47.356;19.448;2023-05-16T17:16:18;9.60;;;4.20;;
68273;SDS011;55104;47.356;19.448;2023-05-16T17:19:20;9.85;;;3.90;;
68273;SDS011;55104;47.356;19.448;2023-05-16T17:22:23;13.07;;;4.22;;
68273;SDS011;55104;47.356;19.448;2023-05-16T17:25:25;10.20;;;4.00;;
68273;SDS011;55104;47.356;19.448;2023-05-16T17:28:29;12.98;;;5.05;;
68273;SDS011;55104;47.356;19.448;2023-05-16T17:31:33;11.13;;;5.40;;
68273;SDS011;55104;47.356;19.448;2023-05-16T17:34:37;13.85;;;4.80;;
68273;SDS011;55104;47.356;19.448;2023-05-16T17:37:39;10.38;;;4.35;;
68273;SDS011;55104;47.356;19.448;2023-05-16T17:40:42;8.18;;;3.38;;
68273;SDS011;55104;47.356;19.448;2023-05-16T17:43:45;10.00;;;4.22;;
68273;SDS011;55104;47.356;19.448;2023-05-16T17:46:48;9.20;;;4.23;;
68273;SDS011;55104;47.356;19.448;2023-05-16T17:49:51;14.80;;;5.50;;
68273;SDS011;55104;47.356;19.448;2023-05-16T17:52:55;10.38;;;3.90;;
68273;SDS011;55104;47.356;19.448;2023-05-16T17:55:58;10.68;;;4.30;;
68273;SDS011;55104;47.356;19.448;2023-05-16T17:59:00;10.75;;;4.07;;
68273;SDS011;55104;47.356;19.448;2023-05-16T18:02:03;10.73;;;4.47;;
68273;SDS011;55104;47.356;19.448;2023-05-16T18:05:09;12.18;;;4.00;;
68273;SDS011;55104;47.356;19.448;2023-05-16T18:08:14;11.07;;;5.18;;
68273;SDS011;55104;47.356;19.448;2023-05-16T18:11:16;8.98;;;3.70;;
68273;SDS011;55104;47.356;19.448;2023-05-16T18:14:19;10.90;;;4.55;;
68273;SDS011;55104;47.356;19.448;2023-05-16T18:17:21;12.13;;;4.87;;